Terminal Aerodrome Forecast
Issued by NWS

Home | Current Version | Previous Version | Text Only | Print | Product List | Glossary On
Versions: 1 2 3 4 5 6 7 8 9 10 11 12 13 14 15 16 17 18 19 20 21
181
FTUS43 KILX 190521
TAFCMI
TAF
KCMI 190521Z 1906/2006 25005KT P6SM VCTS SCT060CB BKN120
      TEMPO 1906/1910 BKN050CB
     FM191000 27004KT P6SM BKN200
      TEMPO 1910/1914 4SM BR BKN060
     FM192200 17004KT P6SM FEW200
      TEMPO 1922/2002 BKN050=

USA.gov is the U.S. government's official web portal to all federal, state and local government web resources and services.